createdAt,value
2023-03-28T00:01:10.730Z,7.54
2023-03-28T00:03:40.670Z,7.55
2023-03-28T00:06:12.125Z,7.52
2023-03-28T00:08:41.315Z,7.54
2023-03-28T00:11:19.911Z,7.52
2023-03-28T00:13:49.398Z,7.51
2023-03-28T00:16:18.925Z,7.51
2023-03-28T00:18:47.519Z,7.50
2023-03-28T00:21:24.891Z,7.49
2023-03-28T00:23:56.247Z,7.49
2023-03-28T00:26:27.006Z,7.47
2023-03-28T00:28:56.095Z,7.47
2023-03-28T00:31:25.336Z,7.46
2023-03-28T00:33:54.051Z,7.47
2023-03-28T00:36:26.815Z,7.43
2023-03-28T00:38:55.266Z,7.43
2023-03-28T00:41:26.967Z,7.42
2023-03-28T00:43:57.061Z,7.42
2023-03-28T00:46:31.971Z,7.41
2023-03-28T00:49:04.827Z,7.40
2023-03-28T00:51:37.172Z,7.42
2023-03-28T00:54:09.404Z,7.40
2023-03-28T00:56:42.687Z,7.40
2023-03-28T00:59:15.924Z,7.38
2023-03-28T01:01:45.502Z,7.38
2023-03-28T01:04:20.606Z,7.37
2023-03-28T01:06:54.806Z,7.38
2023-03-28T01:09:24.693Z,7.36
2023-03-28T01:11:58.208Z,7.35
2023-03-28T01:14:30.486Z,7.33
2023-03-28T01:16:58.997Z,7.34
2023-03-28T01:19:45.570Z,7.34
2023-03-28T01:23:00.614Z,7.32
2023-03-28T01:26:17.440Z,7.26
2023-03-28T01:29:40.236Z,7.22
2023-03-28T01:33:05.112Z,7.20
2023-03-28T01:36:40.033Z,7.17
2023-03-28T01:39:16.833Z,7.16
2023-03-28T01:41:55.389Z,7.16
2023-03-28T01:44:34.126Z,7.16
2023-03-28T01:47:10.228Z,7.18
2023-03-28T01:49:47.280Z,7.17
2023-03-28T01:52:23.599Z,7.18
2023-03-28T01:55:00.610Z,7.17
2023-03-28T01:57:37.115Z,7.18
2023-03-28T02:00:12.992Z,7.17
2023-03-28T02:02:49.385Z,7.15
2023-03-28T02:05:20.545Z,7.16
2023-03-28T02:07:52.185Z,7.17
2023-03-28T02:10:26.049Z,7.15
2023-03-28T02:13:00.397Z,7.14
2023-03-28T02:15:31.028Z,7.14
2023-03-28T02:18:03.180Z,7.14
2023-03-28T02:20:36.049Z,7.13
2023-03-28T02:23:10.539Z,7.12
2023-03-28T02:25:39.176Z,7.12
2023-03-28T02:28:11.037Z,7.11
2023-03-28T02:30:40.149Z,7.12
2023-03-28T02:33:30.298Z,7.11
2023-03-28T02:36:08.608Z,7.08
2023-03-28T02:38:47.196Z,7.09
2023-03-28T02:41:30.123Z,7.06
2023-03-28T02:44:37.036Z,7.04
2023-03-28T02:47:17.900Z,7.05
2023-03-28T02:49:56.712Z,7.03
2023-03-28T02:52:37.012Z,7.04
2023-03-28T02:55:17.641Z,7.04
2023-03-28T02:57:51.542Z,7.03
2023-03-28T03:00:21.725Z,7.01
2023-03-28T03:02:52.525Z,7.02
2023-03-28T03:05:22.108Z,7.03
2023-03-28T03:07:51.638Z,7.03
2023-03-28T03:10:22.114Z,7.02
2023-03-28T03:12:50.563Z,7.02
2023-03-28T03:15:19.176Z,7.03
2023-03-28T03:17:48.075Z,7.01
2023-03-28T03:20:16.570Z,7.02
2023-03-28T03:22:44.977Z,7.02
2023-03-28T03:25:14.597Z,7.02
2023-03-28T03:27:44.560Z,7.03
2023-03-28T03:30:13.976Z,7.02
2023-03-28T03:32:44.228Z,7.00
2023-03-28T03:35:13.256Z,7.01
2023-03-28T03:37:41.683Z,7.02
2023-03-28T03:40:11.369Z,7.02
2023-03-28T03:42:39.931Z,7.04
2023-03-28T03:45:11.669Z,7.03
2023-03-28T03:47:40.111Z,7.04
2023-03-28T03:50:09.975Z,7.04
2023-03-28T03:52:38.801Z,7.05
2023-03-28T03:55:08.444Z,7.06
2023-03-28T03:57:36.880Z,7.06
2023-03-28T04:00:11.714Z,7.07
2023-03-28T04:02:41.906Z,7.07
2023-03-28T04:05:11.077Z,7.09
2023-03-28T04:07:41.250Z,7.10
2023-03-28T04:10:11.111Z,7.08
2023-03-28T04:12:39.629Z,7.11
2023-03-28T04:15:10.107Z,7.11
2023-03-28T04:17:41.320Z,7.13
2023-03-28T04:20:13.759Z,7.14
2023-03-28T04:22:46.262Z,7.15
2023-03-28T04:25:17.934Z,7.15
2023-03-28T04:27:48.900Z,7.17
2023-03-28T04:30:17.979Z,7.17
2023-03-28T04:32:50.584Z,7.17
2023-03-28T04:35:19.203Z,7.18
2023-03-28T04:37:47.702Z,7.18
2023-03-28T04:40:17.919Z,7.16
2023-03-28T04:42:46.851Z,7.14
2023-03-28T04:45:17.953Z,7.11
2023-03-28T04:47:48.305Z,7.11
2023-03-28T04:50:17.103Z,7.09
2023-03-28T04:52:45.673Z,7.07
2023-03-28T04:55:16.237Z,7.04
2023-03-28T04:57:44.727Z,7.03
2023-03-28T05:00:16.917Z,7.03
2023-03-28T05:02:47.886Z,7.04
2023-03-28T05:05:16.927Z,7.04
2023-03-28T05:07:45.344Z,7.05
2023-03-28T05:10:14.276Z,7.08
2023-03-28T05:12:42.926Z,7.12
2023-03-28T05:15:21.171Z,7.15
2023-03-28T05:17:53.079Z,7.21
2023-03-28T05:20:21.671Z,7.23
2023-03-28T05:22:50.114Z,7.28
2023-03-28T05:25:18.821Z,7.32
2023-03-28T05:27:47.487Z,7.36
2023-03-28T05:30:16.561Z,7.42
2023-03-28T05:32:45.665Z,7.49
2023-03-28T05:35:17.297Z,7.56
2023-03-28T05:37:47.009Z,7.66
2023-03-28T05:40:16.797Z,7.73
2023-03-28T05:42:45.898Z,7.78
2023-03-28T05:45:14.509Z,7.88
2023-03-28T05:47:42.985Z,7.98
2023-03-28T05:50:12.485Z,8.08
2023-03-28T05:52:42.258Z,8.14
2023-03-28T05:55:11.125Z,8.20
2023-03-28T05:57:39.540Z,8.29
2023-03-28T06:00:12.098Z,8.38
2023-03-28T06:02:43.251Z,8.49
2023-03-28T06:05:12.861Z,8.57
2023-03-28T06:07:43.346Z,8.64
2023-03-28T06:10:14.930Z,8.73
2023-03-28T06:12:43.476Z,8.85
2023-03-28T06:15:13.729Z,8.95
2023-03-28T06:17:42.419Z,9.07
2023-03-28T06:20:12.278Z,9.23
2023-03-28T06:22:42.235Z,9.39
2023-03-28T06:25:11.673Z,9.49
2023-03-28T06:27:40.159Z,9.56
2023-03-28T06:30:10.463Z,9.57
2023-03-28T06:32:38.865Z,9.58
2023-03-28T06:35:09.450Z,9.54
2023-03-28T06:37:37.897Z,9.54
2023-03-28T06:40:09.890Z,9.56
2023-03-28T06:42:38.322Z,9.59
2023-03-28T06:45:08.517Z,9.62
2023-03-28T06:47:37.000Z,9.64
2023-03-28T06:50:06.615Z,9.72
2023-03-28T06:52:35.192Z,9.80
2023-03-28T06:55:03.804Z,9.83
2023-03-28T06:57:33.637Z,9.88
2023-03-28T07:00:02.201Z,9.98
2023-03-28T07:02:31.057Z,10.04
2023-03-28T07:04:59.596Z,10.14
2023-03-28T07:07:28.175Z,10.20
2023-03-28T07:09:56.638Z,10.21
2023-03-28T07:12:25.200Z,10.29
2023-03-28T07:14:55.050Z,10.39
2023-03-28T07:17:23.483Z,10.50
2023-03-28T07:19:53.675Z,10.59
2023-03-28T07:22:22.252Z,10.62
2023-03-28T07:24:50.799Z,10.55
2023-03-28T07:27:19.225Z,10.46
2023-03-28T07:29:47.758Z,10.44
2023-03-28T07:32:17.820Z,10.35
2023-03-28T07:34:46.586Z,10.35
2023-03-28T07:37:15.168Z,10.46
2023-03-28T07:39:43.978Z,10.55
2023-03-28T07:42:13.471Z,10.64
2023-03-28T07:44:42.561Z,10.75
2023-03-28T07:47:12.297Z,10.87
2023-03-28T07:49:42.135Z,10.90
2023-03-28T07:52:10.590Z,10.95
2023-03-28T07:54:39.293Z,11.01
2023-03-28T07:57:08.236Z,11.11
2023-03-28T07:59:37.025Z,11.11
2023-03-28T08:02:05.613Z,11.10
2023-03-28T08:04:34.504Z,11.09
2023-03-28T08:07:04.326Z,11.00
2023-03-28T08:09:32.805Z,10.87
2023-03-28T08:12:01.964Z,10.75
2023-03-28T08:14:30.704Z,10.68
2023-03-28T08:16:59.163Z,10.66
2023-03-28T08:19:27.743Z,10.61
2023-03-28T08:21:58.887Z,10.51
2023-03-28T08:24:35.326Z,10.39
2023-03-28T08:27:05.267Z,10.45
2023-03-28T08:29:33.953Z,10.37
2023-03-28T08:32:03.723Z,10.30
2023-03-28T08:34:32.232Z,10.32
2023-03-28T08:37:00.833Z,10.30
2023-03-28T08:39:30.946Z,10.25
2023-03-28T08:42:24.734Z,10.30
2023-03-28T08:45:16.910Z,10.35
2023-03-28T08:48:01.545Z,10.40
2023-03-28T08:50:34.880Z,10.43
2023-03-28T08:53:05.029Z,10.66
2023-03-28T08:55:40.234Z,10.75
2023-03-28T08:58:19.856Z,10.88
2023-03-28T09:00:50.472Z,10.97
2023-03-28T09:03:22.699Z,11.15
2023-03-28T09:05:57.084Z,11.14
2023-03-28T09:09:13.512Z,11.06
2023-03-28T09:12:10.599Z,10.90
2023-03-28T09:15:16.348Z,10.78
2023-03-28T09:18:02.321Z,10.70
2023-03-28T09:20:43.241Z,10.68
2023-03-28T09:23:42.184Z,10.57
2023-03-28T09:26:17.160Z,10.55
2023-03-28T09:28:53.409Z,10.49
2023-03-28T09:31:29.032Z,10.46
2023-03-28T09:34:00.444Z,10.52
2023-03-28T09:36:45.452Z,10.61
2023-03-28T09:39:29.889Z,10.77
2023-03-28T09:42:05.591Z,10.98
2023-03-28T09:44:53.512Z,11.13
2023-03-28T09:47:23.056Z,11.21
2023-03-28T09:50:02.181Z,11.22
2023-03-28T09:52:34.401Z,11.25
2023-03-28T09:55:03.258Z,11.30
2023-03-28T09:58:02.072Z,11.41
2023-03-28T10:00:38.253Z,11.63
2023-03-28T10:03:08.366Z,11.61
2023-03-28T10:05:40.875Z,11.67
2023-03-28T10:08:27.105Z,11.71
2023-03-28T10:11:03.384Z,11.70
2023-03-28T10:13:40.377Z,11.56
2023-03-28T10:16:14.255Z,11.61
2023-03-28T10:18:44.187Z,11.59
2023-03-28T10:21:18.696Z,11.42
2023-03-28T10:23:54.634Z,11.25
2023-03-28T10:26:27.813Z,11.09
2023-03-28T10:29:04.301Z,10.95
2023-03-28T10:31:35.266Z,10.81
2023-03-28T10:34:04.076Z,10.67
2023-03-28T10:36:37.533Z,10.58
2023-03-28T10:39:23.346Z,10.49
2023-03-28T10:41:56.159Z,10.46
2023-03-28T10:44:30.538Z,10.57
2023-03-28T10:47:04.475Z,10.81
2023-03-28T10:49:47.272Z,11.10
2023-03-28T10:52:27.091Z,11.50
2023-03-28T10:55:13.603Z,11.94
2023-03-28T10:57:53.972Z,12.46
2023-03-28T11:00:27.603Z,12.74
2023-03-28T11:03:27.778Z,12.89
2023-03-28T11:06:09.414Z,13.02
2023-03-28T11:08:58.341Z,13.06
2023-03-28T11:11:50.643Z,13.21
2023-03-28T11:14:36.806Z,13.49
2023-03-28T11:17:14.867Z,13.96
2023-03-28T11:20:17.598Z,14.30
2023-03-28T11:23:09.741Z,14.40
2023-03-28T11:25:47.468Z,14.39
2023-03-28T11:28:29.210Z,14.23
2023-03-28T11:31:01.291Z,13.98
2023-03-28T11:33:37.501Z,13.67
2023-03-28T11:36:16.553Z,13.55
2023-03-28T11:38:51.898Z,13.44
2023-03-28T11:41:23.431Z,13.23
2023-03-28T11:43:59.693Z,12.84
2023-03-28T11:46:33.210Z,12.41
2023-03-28T11:49:18.248Z,11.95
2023-03-28T11:51:56.970Z,11.46
2023-03-28T11:54:34.803Z,10.96
2023-03-28T11:57:13.255Z,10.67
2023-03-28T11:59:49.348Z,10.78
2023-03-28T12:02:39.024Z,11.31
2023-03-28T12:05:19.985Z,11.96
2023-03-28T12:07:56.670Z,12.71
2023-03-28T12:10:36.013Z,13.21
2023-03-28T12:13:12.364Z,13.51
2023-03-28T12:15:49.920Z,13.44
2023-03-28T12:18:28.240Z,13.24
2023-03-28T12:21:05.257Z,13.70
2023-03-28T12:23:40.888Z,14.23
2023-03-28T12:26:22.919Z,14.48
2023-03-28T12:28:55.924Z,14.37
2023-03-28T12:31:28.891Z,14.09
2023-03-28T12:34:06.733Z,13.73
2023-03-28T12:36:44.147Z,13.67
2023-03-28T12:39:34.479Z,14.22
2023-03-28T12:42:06.304Z,14.88
2023-03-28T12:44:43.887Z,14.97
2023-03-28T12:47:19.791Z,14.69
2023-03-28T12:49:53.113Z,14.23
2023-03-28T12:52:25.684Z,13.75
2023-03-28T12:55:01.884Z,13.32
2023-03-28T12:57:48.271Z,12.92
2023-03-28T13:00:27.945Z,12.68
2023-03-28T13:03:16.422Z,12.51
2023-03-28T13:05:54.065Z,12.39
2023-03-28T13:08:37.786Z,12.26
2023-03-28T13:11:19.527Z,12.15
2023-03-28T13:13:59.501Z,12.08
2023-03-28T13:16:46.570Z,11.98
2023-03-28T13:19:18.735Z,12.40
2023-03-28T13:21:51.908Z,12.86
2023-03-28T13:24:36.170Z,13.08
2023-03-28T13:27:13.811Z,13.16
2023-03-28T13:29:51.626Z,13.15
2023-03-28T13:32:24.379Z,13.06
2023-03-28T13:34:57.858Z,12.97
2023-03-28T13:37:38.134Z,13.07
2023-03-28T13:40:22.256Z,13.43
2023-03-28T13:43:00.816Z,13.97
2023-03-28T13:45:29.293Z,14.40
2023-03-28T13:48:09.916Z,14.63
2023-03-28T13:50:41.213Z,15.27
2023-03-28T13:53:10.027Z,15.65
2023-03-28T13:55:38.895Z,15.55
2023-03-28T13:58:12.378Z,15.31
2023-03-28T14:00:41.249Z,15.08
2023-03-28T14:03:16.653Z,14.86
2023-03-28T14:05:47.682Z,14.62
2023-03-28T14:08:25.433Z,14.36
2023-03-28T14:10:56.929Z,14.28
2023-03-28T14:13:30.555Z,14.92
2023-03-28T14:15:59.267Z,15.63
2023-03-28T14:18:36.024Z,16.49
2023-03-28T14:21:06.749Z,17.01
2023-03-28T14:23:38.570Z,17.17
2023-03-28T14:26:14.807Z,17.04
2023-03-28T14:28:47.244Z,16.76
2023-03-28T14:31:29.123Z,16.47
2023-03-28T14:33:58.749Z,16.21
2023-03-28T14:36:31.249Z,16.19
2023-03-28T14:39:13.352Z,15.92
2023-03-28T14:41:44.886Z,15.72
2023-03-28T14:44:15.720Z,15.49
2023-03-28T14:46:44.547Z,15.28
2023-03-28T14:49:23.534Z,15.06
2023-03-28T14:51:57.514Z,14.84
2023-03-28T14:54:31.367Z,14.66
2023-03-28T14:57:01.076Z,14.53
2023-03-28T14:59:38.142Z,14.42
2023-03-28T15:02:11.278Z,14.32
2023-03-28T15:04:40.689Z,14.14
2023-03-28T15:07:24.361Z,14.02
2023-03-28T15:10:10.140Z,13.92
2023-03-28T15:12:47.758Z,13.84
2023-03-28T15:15:24.145Z,13.79
2023-03-28T15:17:54.689Z,13.73
2023-03-28T15:20:28.052Z,13.69
2023-03-28T15:22:58.873Z,13.66
2023-03-28T15:25:28.793Z,13.63
2023-03-28T15:28:01.828Z,13.62
2023-03-28T15:30:36.424Z,13.56
2023-03-28T15:33:07.342Z,13.48
2023-03-28T15:35:40.569Z,13.39
2023-03-28T15:38:16.488Z,13.31
2023-03-28T15:40:46.718Z,13.25
2023-03-28T15:43:41.406Z,13.17
2023-03-28T15:46:16.181Z,13.11
2023-03-28T15:48:45.380Z,13.09
2023-03-28T15:51:17.856Z,13.03
2023-03-28T15:53:48.899Z,12.99
2023-03-28T15:56:24.713Z,12.93
2023-03-28T15:58:54.092Z,12.91
2023-03-28T16:01:28.493Z,12.85
2023-03-28T16:04:28.936Z,12.78
2023-03-28T16:07:10.513Z,12.76
2023-03-28T16:09:43.061Z,12.74
2023-03-28T16:12:15.274Z,12.71
2023-03-28T16:14:48.051Z,12.67
2023-03-28T16:17:17.929Z,12.66
2023-03-28T16:19:48.834Z,12.64
2023-03-28T16:22:17.370Z,12.62
2023-03-28T16:24:46.352Z,12.62
2023-03-28T16:27:14.865Z,12.61
2023-03-28T16:29:43.769Z,12.59
2023-03-28T16:32:13.628Z,12.58
2023-03-28T16:34:45.171Z,12.53
2023-03-28T16:37:13.805Z,12.49
2023-03-28T16:39:42.245Z,12.45
2023-03-28T16:42:11.197Z,12.39
2023-03-28T16:44:39.853Z,12.32
2023-03-28T16:47:08.420Z,12.26
2023-03-28T16:49:37.141Z,12.24
2023-03-28T16:52:07.555Z,12.20
2023-03-28T16:54:36.552Z,12.19
2023-03-28T16:57:05.477Z,12.19
2023-03-28T16:59:34.830Z,12.19
2023-03-28T17:02:03.396Z,12.20
2023-03-28T17:04:33.901Z,12.19
2023-03-28T17:07:03.034Z,12.21
2023-03-28T17:09:34.724Z,12.20
2023-03-28T17:12:03.582Z,12.19
2023-03-28T17:14:32.743Z,12.16
2023-03-28T17:17:03.335Z,12.16
2023-03-28T17:19:33.206Z,12.14
2023-03-28T17:22:02.969Z,12.13
2023-03-28T17:24:33.173Z,12.12
2023-03-28T17:27:03.021Z,12.09
2023-03-28T17:29:34.124Z,12.08
2023-03-28T17:32:04.249Z,12.05
2023-03-28T17:34:33.446Z,12.01
2023-03-28T17:37:04.553Z,11.94
2023-03-28T17:39:36.978Z,11.89
2023-03-28T17:42:07.408Z,11.85
2023-03-28T17:44:36.745Z,11.79
2023-03-28T17:47:06.812Z,11.73
2023-03-28T17:49:37.641Z,11.70
2023-03-28T17:52:11.836Z,11.67
2023-03-28T17:54:42.930Z,11.67
2023-03-28T17:57:13.046Z,11.69
2023-03-28T17:59:43.196Z,11.69
2023-03-28T18:02:13.992Z,11.69
2023-03-28T18:04:44.669Z,11.70
2023-03-28T18:07:16.245Z,11.71
2023-03-28T18:09:49.578Z,11.70
2023-03-28T18:12:20.440Z,11.70
2023-03-28T18:14:50.628Z,11.69
2023-03-28T18:17:23.526Z,11.66
2023-03-28T18:19:54.192Z,11.64
2023-03-28T18:22:24.296Z,11.60
2023-03-28T18:25:03.573Z,11.55
2023-03-28T18:27:34.577Z,11.52
2023-03-28T18:30:07.792Z,11.50
2023-03-28T18:32:40.275Z,11.51
2023-03-28T18:35:12.275Z,11.52
2023-03-28T18:37:43.390Z,11.52
2023-03-28T18:40:17.633Z,11.53
2023-03-28T18:42:47.402Z,11.54
2023-03-28T18:45:18.215Z,11.55
2023-03-28T18:47:48.074Z,11.54
2023-03-28T18:50:19.989Z,11.55
2023-03-28T18:52:50.007Z,11.57
2023-03-28T18:55:22.456Z,11.56
2023-03-28T18:57:53.121Z,11.57
2023-03-28T19:00:24.212Z,11.57
2023-03-28T19:03:02.928Z,11.60
2023-03-28T19:05:37.657Z,11.60
2023-03-28T19:08:11.594Z,11.60
2023-03-28T19:10:48.474Z,11.57
2023-03-28T19:13:20.091Z,11.57
2023-03-28T19:15:59.456Z,11.54
2023-03-28T19:18:31.549Z,11.53
2023-03-28T19:21:03.054Z,11.50
2023-03-28T19:23:33.493Z,11.47
2023-03-28T19:26:09.134Z,11.42
2023-03-28T19:28:39.741Z,11.38
2023-03-28T19:31:12.844Z,11.33
2023-03-28T19:33:45.364Z,11.29
2023-03-28T19:36:15.764Z,11.24
2023-03-28T19:38:46.253Z,11.19
2023-03-28T19:41:22.676Z,11.11
2023-03-28T19:43:53.191Z,11.07
2023-03-28T19:46:33.295Z,11.03
2023-03-28T19:49:08.590Z,10.98
2023-03-28T19:51:39.176Z,10.95
2023-03-28T19:54:08.980Z,10.91
2023-03-28T19:56:41.376Z,10.87
2023-03-28T19:59:12.240Z,10.85
2023-03-28T20:01:42.554Z,10.81
2023-03-28T20:04:16.274Z,10.77
2023-03-28T20:06:46.398Z,10.75
2023-03-28T20:09:15.996Z,10.73
2023-03-28T20:11:47.724Z,10.70
2023-03-28T20:14:20.519Z,10.68
2023-03-28T20:16:50.052Z,10.65
2023-03-28T20:19:20.809Z,10.62
2023-03-28T20:21:50.855Z,10.58
2023-03-28T20:24:20.911Z,10.55
2023-03-28T20:26:53.202Z,10.51
2023-03-28T20:29:22.608Z,10.48
2023-03-28T20:31:53.385Z,10.42
2023-03-28T20:34:25.307Z,10.40
2023-03-28T20:36:56.739Z,10.37
2023-03-28T20:39:27.830Z,10.35
2023-03-28T20:42:05.856Z,10.33
2023-03-28T20:44:38.503Z,10.28
2023-03-28T20:47:09.204Z,10.26
2023-03-28T20:49:45.936Z,10.23
2023-03-28T20:52:15.512Z,10.22
2023-03-28T20:54:43.930Z,10.20
2023-03-28T20:57:13.788Z,10.17
2023-03-28T20:59:42.702Z,10.16
2023-03-28T21:02:12.464Z,10.12
2023-03-28T21:04:41.923Z,10.12
2023-03-28T21:07:11.266Z,10.10
2023-03-28T21:09:41.794Z,10.07
2023-03-28T21:12:10.343Z,10.04
2023-03-28T21:14:40.241Z,10.00
2023-03-28T21:17:10.048Z,9.97
2023-03-28T21:19:38.503Z,9.93
2023-03-28T21:22:07.077Z,9.88
2023-03-28T21:24:35.540Z,9.85
2023-03-28T21:27:03.975Z,9.82
2023-03-28T21:29:32.692Z,9.80
2023-03-28T21:32:02.500Z,9.77
2023-03-28T21:34:33.515Z,9.74
2023-03-28T21:37:02.064Z,9.70
2023-03-28T21:39:30.493Z,9.67
2023-03-28T21:41:59.242Z,9.64
2023-03-28T21:44:27.856Z,9.60
2023-03-28T21:46:56.862Z,9.58
2023-03-28T21:49:26.785Z,9.55
2023-03-28T21:51:55.351Z,9.54
2023-03-28T21:54:23.808Z,9.50
2023-03-28T21:56:52.246Z,9.48
2023-03-28T21:59:21.079Z,9.45
2023-03-28T22:01:49.571Z,9.44
2023-03-28T22:04:18.026Z,9.41
2023-03-28T22:06:47.857Z,9.40
2023-03-28T22:09:16.252Z,9.38
2023-03-28T22:11:45.927Z,9.34
2023-03-28T22:14:14.343Z,9.32
2023-03-28T22:16:42.743Z,9.31
2023-03-28T22:19:13.678Z,9.30
2023-03-28T22:21:42.150Z,9.28
2023-03-28T22:24:13.382Z,9.27
2023-03-28T22:26:42.274Z,9.25
2023-03-28T22:29:10.749Z,9.23
2023-03-28T22:31:39.217Z,9.21
2023-03-28T22:34:07.793Z,9.18
2023-03-28T22:36:36.493Z,9.15
2023-03-28T22:39:05.312Z,9.13
2023-03-28T22:41:35.144Z,9.11
2023-03-28T22:44:04.102Z,9.07
2023-03-28T22:46:32.758Z,9.05
2023-03-28T22:49:04.687Z,9.05
2023-03-28T22:51:33.336Z,9.02
2023-03-28T22:54:03.223Z,8.99
2023-03-28T22:56:31.674Z,8.98
2023-03-28T22:59:02.111Z,8.94
2023-03-28T23:01:30.831Z,8.93
2023-03-28T23:03:59.378Z,8.91
2023-03-28T23:06:28.729Z,8.87
2023-03-28T23:08:58.655Z,8.85
2023-03-28T23:11:27.595Z,8.84
2023-03-28T23:13:56.054Z,8.82
2023-03-28T23:16:26.148Z,8.79
2023-03-28T23:18:54.739Z,8.79
2023-03-28T23:21:24.492Z,8.77
2023-03-28T23:23:53.360Z,8.76
2023-03-28T23:26:22.399Z,8.74
2023-03-28T23:28:50.917Z,8.72
2023-03-28T23:31:22.317Z,8.70
2023-03-28T23:33:52.193Z,8.69
2023-03-28T23:36:21.313Z,8.68
2023-03-28T23:38:50.130Z,8.66
2023-03-28T23:41:22.412Z,8.63
2023-03-28T23:43:50.877Z,8.61
2023-03-28T23:46:19.308Z,8.60
2023-03-28T23:48:47.756Z,8.58
2023-03-28T23:51:17.573Z,8.57
2023-03-28T23:53:46.259Z,8.56
2023-03-28T23:56:14.792Z,8.53
2023-03-28T23:58:43.255Z,8.52
